UAE394 OMDB-VVNB
Flight info
| Callsign | UAE394 |
|---|---|
| Flight time | 8h 33m |
| Altitude | 35000 |
| Route | IVURO DCT LALDO B505 NADSO A777 VAXIM L301 RASKI L639 BPL A791 CEA B465 AKSAG B214 LADON/K0887F350 B214 BQ W21 HUVAN HUVAN3J |
| Aircraft | B77W/H-SDE1E2E3FGHIJ2J3J4J5M1RWXY/LB1D1 |
Departure
| Time | 2026-04-24 12:35 |
|---|---|
| Airport | Dubai International Airport (OMDB) |
Arrival
| Time | 2026-04-24 21:09 |
|---|---|
| Airport | Noi Bai International Airport (VVNB) |
| Time | Latitude | Longitude | Altitude | Speed | Heading |
|---|---|---|---|---|---|
| 2026-04-24 12:19 | 25.24928 | 55.36225 | 26 ft | 0 kts | 211° |
| 2026-04-24 12:23 | 25.24939 | 55.36233 | 30 ft | 4 kts | 211° |
| 2026-04-24 12:23 | 25.24962 | 55.36248 | 29 ft | 4 kts | 211° |
| 2026-04-24 12:24 | 25.24984 | 55.36263 | 32 ft | 4 kts | 197° |
| 2026-04-24 12:24 | 25.25009 | 55.36263 | 32 ft | 4 kts | 148° |
| 2026-04-24 12:24 | 25.25024 | 55.36247 | 32 ft | 2 kts | 122° |
| 2026-04-24 12:24 | 25.25037 | 55.36223 | 32 ft | 4 kts | 122° |
| 2026-04-24 12:25 | 25.25051 | 55.36198 | 32 ft | 3 kts | 122° |
| 2026-04-24 12:25 | 25.25053 | 55.36194 | 32 ft | 0 kts | 122° |
| 2026-04-24 12:28 | 25.25035 | 55.36227 | 32 ft | 10 kts | 122° |
| 2026-04-24 12:28 | 25.25003 | 55.36284 | 32 ft | 14 kts | 122° |
| 2026-04-24 12:28 | 25.24932 | 55.36411 | 29 ft | 14 kts | 122° |
| 2026-04-24 12:28 | 25.24881 | 55.36501 | 27 ft | 14 kts | 122° |
| 2026-04-24 12:29 | 25.24847 | 55.36562 | 29 ft | 14 kts | 122° |
| 2026-04-24 12:29 | 25.24798 | 55.36652 | 31 ft | 14 kts | 116° |
| 2026-04-24 12:29 | 25.24778 | 55.36750 | 31 ft | 14 kts | 101° |
| 2026-04-24 12:29 | 25.24745 | 55.36859 | 29 ft | 14 kts | 117° |
| 2026-04-24 12:30 | 25.24767 | 55.36956 | 26 ft | 14 kts | 53° |
| 2026-04-24 12:30 | 25.24745 | 55.37050 | 27 ft | 14 kts | 129° |
| 2026-04-24 12:30 | 25.24689 | 55.37147 | 27 ft | 16 kts | 122° |
| 2026-04-24 12:30 | 25.24617 | 55.37277 | 31 ft | 16 kts | 122° |
| 2026-04-24 12:31 | 25.24537 | 55.37416 | 29 ft | 23 kts | 122° |
| 2026-04-24 12:31 | 25.24457 | 55.37559 | 29 ft | 23 kts | 122° |
| 2026-04-24 12:31 | 25.24372 | 55.37709 | 29 ft | 20 kts | 122° |
| 2026-04-24 12:31 | 25.24342 | 55.37822 | 26 ft | 11 kts | 61° |
| 2026-04-24 12:32 | 25.24430 | 55.37895 | 29 ft | 24 kts | 35° |
| 2026-04-24 12:32 | 25.24566 | 55.37999 | 28 ft | 21 kts | 34° |
| 2026-04-24 12:32 | 25.24624 | 55.38042 | 28 ft | 0 kts | 33° |
| 2026-04-24 12:34 | 25.24650 | 55.38060 | 28 ft | 13 kts | 32° |
| 2026-04-24 12:34 | 25.24733 | 55.38104 | 31 ft | 13 kts | 3° |
| 2026-04-24 12:34 | 25.24805 | 55.38028 | 30 ft | 23 kts | 302° |
| 2026-04-24 12:35 | 25.24981 | 55.37713 | 30 ft | 90 kts | 302° |
| 2026-04-24 12:35 | 25.25477 | 55.36822 | 34 ft | 180 kts | 302° |
| 2026-04-24 12:35 | 25.25930 | 55.36001 | 473 ft | 194 kts | 301° |
| 2026-04-24 12:35 | 25.26647 | 55.34629 | 1531 ft | 201 kts | 303° |
| 2026-04-24 12:36 | 25.27404 | 55.33241 | 2285 ft | 211 kts | 302° |
| 2026-04-24 12:36 | 25.28195 | 55.31808 | 2798 ft | 221 kts | 302° |
| 2026-04-24 12:36 | 25.29032 | 55.30360 | 3411 ft | 222 kts | 303° |
| 2026-04-24 12:36 | 25.30208 | 55.29222 | 3949 ft | 235 kts | 336° |
| 2026-04-24 12:37 | 25.31863 | 55.29065 | 4515 ft | 246 kts | 5° |
| 2026-04-24 12:37 | 25.32639 | 55.29184 | 4722 ft | 250 kts | 3° |
| 2026-04-24 12:37 | 25.34394 | 55.29371 | 5361 ft | 253 kts | 0° |
| 2026-04-24 12:37 | 25.36210 | 55.29502 | 5727 ft | 273 kts | 360° |
| 2026-04-24 12:38 | 25.38150 | 55.29620 | 6331 ft | 281 kts | 2° |
| 2026-04-24 12:38 | 25.40034 | 55.30307 | 6865 ft | 296 kts | 33° |
| 2026-04-24 12:38 | 25.41488 | 55.31929 | 7570 ft | 299 kts | 50° |
| 2026-04-24 12:39 | 25.45495 | 55.37475 | 7523 ft | 301 kts | 49° |
| 2026-04-24 12:39 | 25.46799 | 55.39263 | 7514 ft | 297 kts | 49° |
| 2026-04-24 12:39 | 25.48118 | 55.41066 | 7528 ft | 298 kts | 49° |
| 2026-04-24 12:40 | 25.49506 | 55.43016 | 7522 ft | 300 kts | 50° |
| 2026-04-24 12:40 | 25.50754 | 55.44811 | 7524 ft | 302 kts | 50° |
| 2026-04-24 12:40 | 25.52047 | 55.46682 | 7523 ft | 301 kts | 53° |
| 2026-04-24 12:40 | 25.52889 | 55.48778 | 7647 ft | 300 kts | 83° |
| 2026-04-24 12:41 | 25.52770 | 55.51089 | 8306 ft | 305 kts | 106° |
| 2026-04-24 12:41 | 25.51913 | 55.53217 | 8923 ft | 305 kts | 124° |
| 2026-04-24 12:41 | 25.51052 | 55.54717 | 9376 ft | 310 kts | 125° |
| 2026-04-24 12:41 | 25.51016 | 55.54778 | 9396 ft | 310 kts | 126° |
| 2026-04-24 12:42 | 25.50115 | 55.56322 | 9887 ft | 316 kts | 125° |
| 2026-04-24 12:42 | 25.48908 | 55.58385 | 10569 ft | 322 kts | 125° |
| 2026-04-24 12:42 | 25.47660 | 55.60529 | 10762 ft | 346 kts | 125° |
| 2026-04-24 12:42 | 25.46727 | 55.62147 | 10915 ft | 363 kts | 124° |
| 2026-04-24 12:43 | 25.45887 | 55.63613 | 11022 ft | 377 kts | 124° |
| 2026-04-24 12:43 | 25.44453 | 55.66125 | 11408 ft | 392 kts | 124° |
| 2026-04-24 12:43 | 25.42995 | 55.68710 | 12012 ft | 398 kts | 122° |
| 2026-04-24 12:43 | 25.41940 | 55.71607 | 12503 ft | 407 kts | 104° |
| 2026-04-24 12:44 | 25.41429 | 55.74659 | 13114 ft | 412 kts | 102° |
| 2026-04-24 12:44 | 25.41078 | 55.76622 | 13595 ft | 413 kts | 103° |
| 2026-04-24 12:44 | 25.40422 | 55.79873 | 14390 ft | 414 kts | 105° |
| 2026-04-24 12:44 | 25.39740 | 55.83036 | 15010 ft | 420 kts | 105° |
| 2026-04-24 12:45 | 25.39050 | 55.86201 | 15627 ft | 426 kts | 105° |
| 2026-04-24 12:45 | 25.38358 | 55.89405 | 16184 ft | 433 kts | 104° |
| 2026-04-24 12:45 | 25.37663 | 55.92646 | 16827 ft | 437 kts | 104° |
| 2026-04-24 12:45 | 25.36964 | 55.95922 | 17554 ft | 440 kts | 104° |
| 2026-04-24 12:46 | 25.36482 | 55.98180 | 17922 ft | 445 kts | 104° |
| 2026-04-24 12:46 | 25.35807 | 56.01353 | 18442 ft | 450 kts | 104° |
| 2026-04-24 12:46 | 25.35075 | 56.04776 | 19077 ft | 452 kts | 104° |
| 2026-04-24 12:46 | 25.34349 | 56.08167 | 19616 ft | 456 kts | 104° |
| 2026-04-24 12:47 | 25.33605 | 56.11638 | 20157 ft | 460 kts | 104° |
| 2026-04-24 12:47 | 25.32869 | 56.15091 | 20753 ft | 463 kts | 103° |
| 2026-04-24 12:47 | 25.32347 | 56.18663 | 21225 ft | 468 kts | 96° |
| 2026-04-24 12:47 | 25.32131 | 56.22219 | 21747 ft | 472 kts | 93° |
| 2026-04-24 12:48 | 25.32018 | 56.25906 | 22259 ft | 476 kts | 92° |
| 2026-04-24 12:48 | 25.31907 | 56.29575 | 22764 ft | 479 kts | 93° |
| 2026-04-24 12:48 | 25.31757 | 56.33264 | 23318 ft | 481 kts | 94° |
| 2026-04-24 12:48 | 25.31569 | 56.36964 | 23749 ft | 484 kts | 94° |
| 2026-04-24 12:49 | 25.31354 | 56.40692 | 24154 ft | 487 kts | 94° |
| 2026-04-24 12:49 | 25.31128 | 56.44439 | 24534 ft | 491 kts | 94° |
| 2026-04-24 12:49 | 25.30901 | 56.48212 | 24924 ft | 494 kts | 94° |
| 2026-04-24 12:49 | 25.30674 | 56.52012 | 25323 ft | 497 kts | 94° |
| 2026-04-24 12:50 | 25.30409 | 56.55825 | 25706 ft | 499 kts | 97° |
| 2026-04-24 12:50 | 25.29819 | 56.59605 | 26148 ft | 500 kts | 103° |
| 2026-04-24 12:50 | 25.28918 | 56.63323 | 26537 ft | 502 kts | 108° |
| 2026-04-24 12:50 | 25.27695 | 56.66940 | 26880 ft | 504 kts | 114° |
| 2026-04-24 12:51 | 25.26318 | 56.70515 | 27219 ft | 507 kts | 114° |
| 2026-04-24 12:51 | 25.24919 | 56.74108 | 27554 ft | 511 kts | 114° |
| 2026-04-24 12:51 | 25.23517 | 56.77718 | 27906 ft | 513 kts | 114° |
| 2026-04-24 12:51 | 25.22115 | 56.81353 | 28250 ft | 516 kts | 114° |
| 2026-04-24 12:52 | 25.20714 | 56.85012 | 28567 ft | 519 kts | 114° |
| 2026-04-24 12:52 | 25.19311 | 56.88693 | 28846 ft | 522 kts | 113° |
| 2026-04-24 12:52 | 25.17899 | 56.92406 | 29125 ft | 525 kts | 113° |
| 2026-04-24 12:52 | 25.16485 | 56.96128 | 29495 ft | 526 kts | 113° |
| 2026-04-24 12:53 | 25.15073 | 56.99838 | 29943 ft | 523 kts | 113° |
| 2026-04-24 12:53 | 25.13671 | 57.03521 | 30511 ft | 518 kts | 113° |
| 2026-04-24 12:53 | 25.12274 | 57.07184 | 30878 ft | 518 kts | 113° |
| 2026-04-24 12:53 | 25.10873 | 57.10853 | 31147 ft | 520 kts | 113° |
| 2026-04-24 12:54 | 25.09465 | 57.14535 | 31405 ft | 522 kts | 113° |
| 2026-04-24 12:54 | 25.08050 | 57.18230 | 31687 ft | 523 kts | 113° |
| 2026-04-24 12:54 | 25.06636 | 57.21923 | 32012 ft | 523 kts | 114° |
| 2026-04-24 12:54 | 25.05219 | 57.25619 | 32345 ft | 523 kts | 114° |
| 2026-04-24 12:55 | 25.03842 | 57.29209 | 32644 ft | 523 kts | 114° |
| 2026-04-24 12:55 | 25.02384 | 57.33005 | 32954 ft | 523 kts | 114° |
| 2026-04-24 12:55 | 25.00965 | 57.36698 | 33236 ft | 524 kts | 114° |
| 2026-04-24 12:55 | 24.99541 | 57.40398 | 33532 ft | 523 kts | 113° |
| 2026-04-24 12:56 | 24.98124 | 57.44079 | 33916 ft | 520 kts | 113° |
| 2026-04-24 12:56 | 24.96712 | 57.47742 | 34235 ft | 519 kts | 113° |
| 2026-04-24 12:56 | 24.95295 | 57.51417 | 34392 ft | 521 kts | 113° |
| 2026-04-24 12:56 | 24.93873 | 57.55101 | 34539 ft | 524 kts | 113° |
| 2026-04-24 12:57 | 24.92447 | 57.58794 | 34693 ft | 526 kts | 113° |
| 2026-04-24 12:57 | 24.89567 | 57.66237 | 34774 ft | 528 kts | 113° |
| 2026-04-24 12:58 | 24.86699 | 57.73641 | 34782 ft | 523 kts | 113° |
| 2026-04-24 12:58 | 24.83846 | 57.80992 | 34790 ft | 521 kts | 113° |
| 2026-04-24 12:59 | 24.80875 | 57.88256 | 34793 ft | 520 kts | 116° |
| 2026-04-24 12:59 | 24.77692 | 57.95392 | 34788 ft | 519 kts | 116° |
| 2026-04-24 13:00 | 24.74506 | 58.02522 | 34790 ft | 519 kts | 116° |
| 2026-04-24 13:00 | 24.71354 | 58.09677 | 34793 ft | 520 kts | 115° |
| 2026-04-24 13:01 | 24.68210 | 58.16848 | 34793 ft | 521 kts | 115° |
| 2026-04-24 13:01 | 24.65059 | 58.24024 | 34794 ft | 522 kts | 116° |
| 2026-04-24 13:02 | 24.61896 | 58.31205 | 34792 ft | 522 kts | 116° |
| 2026-04-24 13:02 | 24.58730 | 58.38383 | 34794 ft | 522 kts | 116° |
| 2026-04-24 13:03 | 24.55562 | 58.45551 | 34793 ft | 521 kts | 116° |
| 2026-04-24 13:03 | 24.52394 | 58.52709 | 34801 ft | 521 kts | 116° |
| 2026-04-24 13:04 | 24.49230 | 58.59848 | 34798 ft | 519 kts | 116° |
| 2026-04-24 13:04 | 24.46068 | 58.66973 | 34787 ft | 518 kts | 116° |
| 2026-04-24 13:05 | 24.42909 | 58.74081 | 34794 ft | 518 kts | 116° |
| 2026-04-24 13:05 | 24.39753 | 58.81179 | 34797 ft | 518 kts | 116° |
| 2026-04-24 13:06 | 24.36610 | 58.88258 | 34802 ft | 518 kts | 116° |
| 2026-04-24 13:06 | 24.33445 | 58.95378 | 34801 ft | 518 kts | 116° |
| 2026-04-24 13:07 | 24.30267 | 59.02518 | 34803 ft | 519 kts | 116° |
| 2026-04-24 13:07 | 24.27110 | 59.09593 | 34806 ft | 519 kts | 115° |
| 2026-04-24 13:08 | 24.23928 | 59.16718 | 34793 ft | 518 kts | 115° |
| 2026-04-24 13:08 | 24.20763 | 59.23794 | 34797 ft | 518 kts | 115° |
| 2026-04-24 13:09 | 24.15997 | 59.34427 | 34803 ft | 518 kts | 115° |
| 2026-04-24 13:09 | 24.12817 | 59.41510 | 34802 ft | 517 kts | 115° |
| 2026-04-24 13:10 | 24.10164 | 59.47411 | 34799 ft | 517 kts | 115° |
| 2026-04-24 13:10 | 24.06997 | 59.54437 | 34803 ft | 517 kts | 115° |
| 2026-04-24 13:11 | 24.03799 | 59.61507 | 34811 ft | 517 kts | 115° |
| 2026-04-24 13:11 | 24.00593 | 59.68583 | 34806 ft | 516 kts | 115° |
| 2026-04-24 13:12 | 23.97406 | 59.75614 | 34805 ft | 516 kts | 115° |
| 2026-04-24 13:12 | 23.94225 | 59.82620 | 34809 ft | 516 kts | 115° |
| 2026-04-24 13:13 | 23.91018 | 59.89674 | 34804 ft | 516 kts | 115° |
| 2026-04-24 13:13 | 23.87823 | 59.96692 | 34807 ft | 515 kts | 115° |
| 2026-04-24 13:14 | 23.84626 | 60.03702 | 34805 ft | 515 kts | 115° |
| 2026-04-24 13:14 | 23.81431 | 60.10699 | 34808 ft | 515 kts | 115° |
| 2026-04-24 13:15 | 23.78235 | 60.17687 | 34810 ft | 515 kts | 115° |
| 2026-04-24 13:15 | 23.75033 | 60.24677 | 34811 ft | 514 kts | 115° |
| 2026-04-24 13:16 | 23.71834 | 60.31651 | 34811 ft | 514 kts | 115° |
| 2026-04-24 13:16 | 23.68635 | 60.38615 | 34810 ft | 513 kts | 115° |
| 2026-04-24 13:17 | 23.65456 | 60.45525 | 34810 ft | 513 kts | 115° |
| 2026-04-24 13:17 | 23.62254 | 60.52473 | 34807 ft | 513 kts | 115° |
| 2026-04-24 13:18 | 23.59048 | 60.59423 | 34812 ft | 513 kts | 115° |
| 2026-04-24 13:18 | 23.55842 | 60.66362 | 34814 ft | 512 kts | 115° |
| 2026-04-24 13:19 | 23.52608 | 60.73350 | 34805 ft | 512 kts | 115° |
| 2026-04-24 13:19 | 23.49395 | 60.80284 | 34820 ft | 513 kts | 115° |
| 2026-04-24 13:20 | 23.46178 | 60.87216 | 34814 ft | 513 kts | 115° |
| 2026-04-24 13:20 | 23.42978 | 60.94104 | 34812 ft | 513 kts | 115° |
| 2026-04-24 13:21 | 23.39754 | 61.01031 | 34810 ft | 513 kts | 115° |
| 2026-04-24 13:21 | 23.36528 | 61.07957 | 34816 ft | 512 kts | 115° |
| 2026-04-24 13:22 | 23.33399 | 61.14913 | 34812 ft | 509 kts | 109° |
| 2026-04-24 13:22 | 23.31411 | 61.22253 | 34817 ft | 503 kts | 98° |
| 2026-04-24 13:23 | 23.30583 | 61.29765 | 34823 ft | 499 kts | 92° |
| 2026-04-24 13:23 | 23.29972 | 61.37324 | 34825 ft | 498 kts | 92° |
| 2026-04-24 13:24 | 23.29338 | 61.44833 | 34816 ft | 498 kts | 92° |
| 2026-04-24 13:24 | 23.28672 | 61.52327 | 34815 ft | 498 kts | 92° |
| 2026-04-24 13:25 | 23.27994 | 61.59823 | 34815 ft | 498 kts | 92° |
| 2026-04-24 13:25 | 23.27316 | 61.67260 | 34812 ft | 498 kts | 92° |
| 2026-04-24 13:26 | 23.26633 | 61.74750 | 34815 ft | 498 kts | 92° |
| 2026-04-24 13:26 | 23.25945 | 61.82244 | 34823 ft | 498 kts | 92° |
| 2026-04-24 13:27 | 23.25254 | 61.89745 | 34818 ft | 499 kts | 92° |
| 2026-04-24 13:27 | 23.24559 | 61.97250 | 34820 ft | 498 kts | 92° |
| 2026-04-24 13:28 | 23.23861 | 62.04740 | 34811 ft | 497 kts | 92° |
| 2026-04-24 13:28 | 23.23161 | 62.12216 | 34818 ft | 497 kts | 92° |
| 2026-04-24 13:29 | 23.22458 | 62.19677 | 34818 ft | 496 kts | 92° |
| 2026-04-24 13:29 | 23.21754 | 62.27128 | 34824 ft | 495 kts | 92° |
| 2026-04-24 13:30 | 23.21046 | 62.34572 | 34821 ft | 494 kts | 92° |
| 2026-04-24 13:30 | 23.20336 | 62.41999 | 34821 ft | 494 kts | 92° |
| 2026-04-24 13:31 | 23.19623 | 62.49420 | 34819 ft | 494 kts | 93° |
| 2026-04-24 13:31 | 23.18907 | 62.56844 | 34824 ft | 494 kts | 92° |
| 2026-04-24 13:32 | 23.18187 | 62.64269 | 34819 ft | 494 kts | 92° |
| 2026-04-24 13:32 | 23.17464 | 62.71687 | 34821 ft | 494 kts | 92° |
| 2026-04-24 13:33 | 23.16738 | 62.79099 | 34820 ft | 494 kts | 92° |
| 2026-04-24 13:33 | 23.16007 | 62.86519 | 34826 ft | 493 kts | 92° |
| 2026-04-24 13:34 | 23.15274 | 62.93932 | 34819 ft | 493 kts | 92° |
| 2026-04-24 13:34 | 23.14538 | 63.01339 | 34827 ft | 493 kts | 92° |
| 2026-04-24 13:35 | 23.13799 | 63.08733 | 34820 ft | 492 kts | 92° |
| 2026-04-24 13:35 | 23.13058 | 63.16115 | 34835 ft | 491 kts | 92° |
| 2026-04-24 13:36 | 23.12321 | 63.23429 | 34823 ft | 490 kts | 92° |
| 2026-04-24 13:36 | 23.11577 | 63.30774 | 34821 ft | 489 kts | 92° |
| 2026-04-24 13:37 | 23.10830 | 63.38111 | 34821 ft | 488 kts | 92° |
| 2026-04-24 13:37 | 23.10082 | 63.45433 | 34828 ft | 487 kts | 93° |
| 2026-04-24 13:38 | 23.09331 | 63.52744 | 34823 ft | 487 kts | 93° |
| 2026-04-24 13:38 | 23.08578 | 63.60045 | 34826 ft | 486 kts | 93° |
| 2026-04-24 13:39 | 23.07821 | 63.67345 | 34822 ft | 486 kts | 93° |
| 2026-04-24 13:39 | 23.07062 | 63.74641 | 34832 ft | 486 kts | 93° |
| 2026-04-24 13:40 | 23.06300 | 63.81938 | 34830 ft | 486 kts | 93° |
| 2026-04-24 13:40 | 23.05537 | 63.89232 | 34829 ft | 486 kts | 93° |
| 2026-04-24 13:41 | 23.04799 | 63.96530 | 34826 ft | 486 kts | 93° |
| 2026-04-24 13:41 | 23.04066 | 64.03828 | 34825 ft | 486 kts | 93° |
| 2026-04-24 13:42 | 23.03326 | 64.11129 | 34830 ft | 486 kts | 93° |
| 2026-04-24 13:42 | 23.02580 | 64.18432 | 34828 ft | 486 kts | 93° |
| 2026-04-24 13:43 | 23.01830 | 64.25731 | 34827 ft | 486 kts | 93° |
| 2026-04-24 13:43 | 23.01077 | 64.33027 | 34827 ft | 486 kts | 93° |
| 2026-04-24 13:44 | 23.00322 | 64.40317 | 34830 ft | 486 kts | 94° |
| 2026-04-24 13:44 | 22.99563 | 64.47606 | 34826 ft | 486 kts | 94° |
| 2026-04-24 13:45 | 22.98802 | 64.54887 | 34830 ft | 485 kts | 94° |
| 2026-04-24 13:45 | 22.98037 | 64.62167 | 34827 ft | 485 kts | 94° |
| 2026-04-24 13:46 | 22.97270 | 64.69440 | 34830 ft | 485 kts | 94° |
| 2026-04-24 13:46 | 22.96501 | 64.76709 | 34830 ft | 485 kts | 94° |
| 2026-04-24 13:47 | 22.95786 | 64.83985 | 34829 ft | 484 kts | 90° |
| 2026-04-24 13:47 | 22.95771 | 64.91260 | 34829 ft | 482 kts | 86° |
| 2026-04-24 13:48 | 22.95864 | 64.98528 | 34832 ft | 482 kts | 87° |
| 2026-04-24 13:48 | 22.95932 | 65.05809 | 34828 ft | 482 kts | 87° |
| 2026-04-24 13:49 | 22.95974 | 65.13088 | 34828 ft | 482 kts | 87° |
| 2026-04-24 13:49 | 22.96000 | 65.19138 | 34825 ft | 482 kts | 87° |
| 2026-04-24 13:50 | 22.96029 | 65.26412 | 34830 ft | 482 kts | 87° |
| 2026-04-24 13:50 | 22.96055 | 65.33684 | 34833 ft | 482 kts | 87° |
| 2026-04-24 13:51 | 22.96079 | 65.40948 | 34826 ft | 481 kts | 87° |
| 2026-04-24 13:51 | 22.96100 | 65.48209 | 34826 ft | 481 kts | 88° |
| 2026-04-24 13:52 | 22.96117 | 65.55460 | 34832 ft | 481 kts | 88° |
| 2026-04-24 13:52 | 22.96131 | 65.62707 | 34835 ft | 480 kts | 87° |
| 2026-04-24 13:53 | 22.96142 | 65.69952 | 34829 ft | 480 kts | 87° |
| 2026-04-24 13:53 | 22.96149 | 65.77238 | 34830 ft | 479 kts | 87° |
| 2026-04-24 13:54 | 22.96153 | 65.84469 | 34826 ft | 479 kts | 88° |
| 2026-04-24 13:54 | 22.96154 | 65.91696 | 34827 ft | 479 kts | 88° |
| 2026-04-24 13:55 | 22.96152 | 65.98921 | 34831 ft | 479 kts | 87° |
| 2026-04-24 13:55 | 22.96146 | 66.06147 | 34831 ft | 479 kts | 88° |
| 2026-04-24 13:56 | 22.96137 | 66.13367 | 34830 ft | 479 kts | 88° |
| 2026-04-24 13:56 | 22.96125 | 66.20587 | 34830 ft | 479 kts | 88° |
| 2026-04-24 13:57 | 22.96109 | 66.27812 | 34835 ft | 479 kts | 88° |
| 2026-04-24 13:57 | 22.96090 | 66.35041 | 34830 ft | 479 kts | 88° |
| 2026-04-24 13:58 | 22.96068 | 66.42269 | 34830 ft | 479 kts | 88° |
| 2026-04-24 13:58 | 22.96043 | 66.49498 | 34829 ft | 479 kts | 88° |
| 2026-04-24 13:59 | 22.96014 | 66.56730 | 34832 ft | 479 kts | 88° |
| 2026-04-24 13:59 | 22.95983 | 66.63961 | 34829 ft | 479 kts | 88° |
| 2026-04-24 14:00 | 22.95947 | 66.71199 | 34835 ft | 479 kts | 88° |
| 2026-04-24 14:00 | 22.95909 | 66.78430 | 34831 ft | 479 kts | 88° |
| 2026-04-24 14:01 | 22.95867 | 66.85661 | 34830 ft | 480 kts | 88° |
| 2026-04-24 14:01 | 22.95823 | 66.92896 | 34830 ft | 480 kts | 88° |
| 2026-04-24 14:02 | 22.95790 | 67.00137 | 34834 ft | 480 kts | 88° |
| 2026-04-24 14:02 | 22.95812 | 67.07383 | 34832 ft | 480 kts | 87° |
| 2026-04-24 14:03 | 22.95837 | 67.14635 | 34832 ft | 480 kts | 88° |
| 2026-04-24 14:03 | 22.95852 | 67.21882 | 34836 ft | 480 kts | 88° |
| 2026-04-24 14:04 | 22.95860 | 67.29128 | 34831 ft | 480 kts | 88° |
| 2026-04-24 14:04 | 22.95863 | 67.36365 | 34829 ft | 479 kts | 88° |
| 2026-04-24 14:05 | 22.95864 | 67.43637 | 34827 ft | 479 kts | 88° |
| 2026-04-24 14:05 | 22.95861 | 67.50856 | 34830 ft | 478 kts | 88° |
| 2026-04-24 14:06 | 22.95855 | 67.58067 | 34835 ft | 478 kts | 87° |
| 2026-04-24 14:06 | 22.95847 | 67.65270 | 34822 ft | 477 kts | 87° |
| 2026-04-24 14:07 | 22.95834 | 67.72471 | 34839 ft | 477 kts | 87° |
| 2026-04-24 14:07 | 22.95819 | 67.79671 | 34837 ft | 477 kts | 87° |
| 2026-04-24 14:08 | 22.95801 | 67.86865 | 34825 ft | 477 kts | 88° |
| 2026-04-24 14:08 | 22.95800 | 67.94058 | 34826 ft | 477 kts | 87° |
| 2026-04-24 14:09 | 22.95812 | 68.01258 | 34837 ft | 477 kts | 87° |
| 2026-04-24 14:09 | 22.95819 | 68.08459 | 34832 ft | 477 kts | 87° |
| 2026-04-24 14:10 | 22.95819 | 68.15665 | 34831 ft | 478 kts | 87° |
| 2026-04-24 14:10 | 22.95816 | 68.22918 | 34829 ft | 478 kts | 87° |
| 2026-04-24 14:11 | 22.95810 | 68.30116 | 34832 ft | 477 kts | 87° |
| 2026-04-24 14:12 | 22.95673 | 68.40924 | 34839 ft | 478 kts | 90° |
| 2026-04-24 14:12 | 22.95252 | 68.48124 | 34828 ft | 478 kts | 91° |
| 2026-04-24 14:13 | 22.94802 | 68.55317 | 34844 ft | 478 kts | 90° |
| 2026-04-24 14:13 | 22.94369 | 68.62509 | 34835 ft | 478 kts | 90° |
| 2026-04-24 14:14 | 22.93945 | 68.69705 | 34832 ft | 477 kts | 90° |
| 2026-04-24 14:14 | 22.93308 | 68.80476 | 34830 ft | 477 kts | 90° |
| 2026-04-24 14:15 | 22.92878 | 68.87658 | 34835 ft | 477 kts | 90° |
| 2026-04-24 14:15 | 22.92441 | 68.94888 | 34834 ft | 477 kts | 90° |
| 2026-04-24 14:16 | 22.92007 | 69.02036 | 34833 ft | 478 kts | 90° |
| 2026-04-24 14:17 | 22.91344 | 69.12828 | 34835 ft | 479 kts | 90° |
| 2026-04-24 14:17 | 22.90673 | 69.23643 | 34835 ft | 480 kts | 90° |
| 2026-04-24 14:18 | 22.90217 | 69.30924 | 34822 ft | 480 kts | 90° |
| 2026-04-24 14:18 | 22.89760 | 69.38154 | 34830 ft | 481 kts | 90° |
| 2026-04-24 14:19 | 22.89301 | 69.45386 | 34824 ft | 481 kts | 90° |
| 2026-04-24 14:19 | 22.88838 | 69.52614 | 34829 ft | 481 kts | 90° |
| 2026-04-24 14:20 | 22.88372 | 69.59853 | 34818 ft | 481 kts | 90° |
| 2026-04-24 14:20 | 22.87902 | 69.67098 | 34824 ft | 482 kts | 90° |
| 2026-04-24 14:21 | 22.87443 | 69.74350 | 34815 ft | 482 kts | 90° |
| 2026-04-24 14:21 | 22.87027 | 69.81600 | 34816 ft | 482 kts | 90° |
| 2026-04-24 14:22 | 22.86613 | 69.88852 | 34816 ft | 482 kts | 90° |
| 2026-04-24 14:23 | 22.85974 | 69.99745 | 34814 ft | 483 kts | 90° |
| 2026-04-24 14:23 | 22.85615 | 70.05776 | 34812 ft | 483 kts | 90° |
| 2026-04-24 14:24 | 22.85177 | 70.13086 | 34811 ft | 483 kts | 90° |
| 2026-04-24 14:24 | 22.84738 | 70.20350 | 34814 ft | 483 kts | 90° |
| 2026-04-24 14:25 | 22.84296 | 70.27614 | 34803 ft | 483 kts | 91° |
| 2026-04-24 14:25 | 22.83851 | 70.34878 | 34806 ft | 483 kts | 91° |
| 2026-04-24 14:26 | 22.83403 | 70.42137 | 34805 ft | 483 kts | 91° |
| 2026-04-24 14:26 | 22.82951 | 70.49404 | 34806 ft | 483 kts | 91° |
| 2026-04-24 14:27 | 22.82496 | 70.56666 | 34818 ft | 483 kts | 91° |
| 2026-04-24 14:27 | 22.82037 | 70.63935 | 34811 ft | 483 kts | 91° |
| 2026-04-24 14:28 | 22.81575 | 70.71207 | 34807 ft | 484 kts | 91° |
| 2026-04-24 14:28 | 22.81111 | 70.78477 | 34809 ft | 483 kts | 91° |
| 2026-04-24 14:29 | 22.81126 | 70.85731 | 34816 ft | 480 kts | 82° |
| 2026-04-24 14:29 | 22.82175 | 70.92907 | 34819 ft | 479 kts | 78° |
| 2026-04-24 14:30 | 22.83297 | 71.00023 | 34813 ft | 479 kts | 78° |
| 2026-04-24 14:30 | 22.84390 | 71.07165 | 34799 ft | 480 kts | 78° |
| 2026-04-24 14:31 | 22.85460 | 71.14305 | 34799 ft | 480 kts | 79° |
| 2026-04-24 14:31 | 22.86530 | 71.21505 | 34793 ft | 480 kts | 79° |
| 2026-04-24 14:32 | 22.87583 | 71.28605 | 34795 ft | 480 kts | 79° |
| 2026-04-24 14:32 | 22.88648 | 71.35802 | 34785 ft | 480 kts | 79° |
| 2026-04-24 14:33 | 22.89703 | 71.42955 | 34787 ft | 480 kts | 79° |
| 2026-04-24 14:33 | 22.90754 | 71.50101 | 34790 ft | 480 kts | 79° |
| 2026-04-24 14:34 | 22.91809 | 71.57291 | 34790 ft | 480 kts | 79° |
| 2026-04-24 14:34 | 22.92855 | 71.64451 | 34789 ft | 480 kts | 79° |
| 2026-04-24 14:35 | 22.93897 | 71.71601 | 34784 ft | 480 kts | 79° |
| 2026-04-24 14:35 | 22.94936 | 71.78762 | 34783 ft | 481 kts | 79° |
| 2026-04-24 14:36 | 22.95975 | 71.85937 | 34774 ft | 481 kts | 79° |
| 2026-04-24 14:36 | 22.97010 | 71.93110 | 34777 ft | 481 kts | 79° |
| 2026-04-24 14:37 | 22.98042 | 72.00290 | 34768 ft | 482 kts | 79° |
| 2026-04-24 14:37 | 22.99078 | 72.07523 | 34771 ft | 482 kts | 79° |
| 2026-04-24 14:38 | 23.00107 | 72.14723 | 34767 ft | 482 kts | 79° |
| 2026-04-24 14:38 | 23.01131 | 72.21919 | 34767 ft | 482 kts | 79° |
| 2026-04-24 14:39 | 23.02153 | 72.29118 | 34764 ft | 483 kts | 80° |
| 2026-04-24 14:39 | 23.03173 | 72.36331 | 34771 ft | 483 kts | 80° |
| 2026-04-24 14:40 | 23.04190 | 72.43547 | 34770 ft | 484 kts | 80° |
| 2026-04-24 14:40 | 23.05205 | 72.50777 | 34774 ft | 484 kts | 80° |
| 2026-04-24 14:41 | 23.06219 | 72.58015 | 34776 ft | 485 kts | 80° |
| 2026-04-24 14:41 | 23.07098 | 72.65273 | 34774 ft | 486 kts | 85° |
| 2026-04-24 14:42 | 23.07442 | 72.71407 | 34782 ft | 486 kts | 85° |
| 2026-04-24 14:42 | 23.07884 | 72.80136 | 34771 ft | 487 kts | 85° |
| 2026-04-24 14:43 | 23.08273 | 72.87434 | 34773 ft | 488 kts | 85° |
| 2026-04-24 14:43 | 23.08679 | 72.94839 | 34767 ft | 488 kts | 85° |
| 2026-04-24 14:44 | 23.09082 | 73.02196 | 34764 ft | 488 kts | 85° |
| 2026-04-24 14:44 | 23.09482 | 73.09561 | 34774 ft | 488 kts | 86° |
| 2026-04-24 14:45 | 23.09877 | 73.16925 | 34771 ft | 488 kts | 86° |
| 2026-04-24 14:45 | 23.10269 | 73.24294 | 34777 ft | 488 kts | 86° |
| 2026-04-24 14:46 | 23.10657 | 73.31656 | 34775 ft | 489 kts | 86° |
| 2026-04-24 14:46 | 23.10980 | 73.37828 | 34782 ft | 489 kts | 86° |
| 2026-04-24 14:47 | 23.11362 | 73.45211 | 34783 ft | 489 kts | 86° |
| 2026-04-24 14:47 | 23.11744 | 73.52644 | 34787 ft | 490 kts | 86° |
| 2026-04-24 14:48 | 23.12120 | 73.60033 | 34786 ft | 490 kts | 86° |
| 2026-04-24 14:48 | 23.12493 | 73.67432 | 34796 ft | 490 kts | 86° |
| 2026-04-24 14:49 | 23.12863 | 73.74829 | 34793 ft | 491 kts | 86° |
| 2026-04-24 14:49 | 23.13232 | 73.82284 | 34805 ft | 491 kts | 86° |
| 2026-04-24 14:50 | 23.13593 | 73.89644 | 34806 ft | 491 kts | 86° |
| 2026-04-24 14:50 | 23.13955 | 73.97103 | 34817 ft | 491 kts | 86° |
| 2026-04-24 14:51 | 23.14312 | 74.04519 | 34811 ft | 491 kts | 86° |
| 2026-04-24 14:51 | 23.14665 | 74.11936 | 34829 ft | 492 kts | 86° |
| 2026-04-24 14:52 | 23.15018 | 74.19413 | 34830 ft | 492 kts | 86° |
| 2026-04-24 14:52 | 23.15362 | 74.26793 | 34838 ft | 493 kts | 86° |
| 2026-04-24 14:53 | 23.15706 | 74.34233 | 34836 ft | 493 kts | 86° |
| 2026-04-24 14:53 | 23.15922 | 74.41685 | 34845 ft | 494 kts | 88° |
| 2026-04-24 14:54 | 23.16044 | 74.49201 | 34855 ft | 495 kts | 88° |
| 2026-04-24 14:54 | 23.16171 | 74.56637 | 34862 ft | 496 kts | 88° |
| 2026-04-24 14:55 | 23.16293 | 74.63062 | 34862 ft | 496 kts | 88° |
| 2026-04-24 14:55 | 23.16464 | 74.71828 | 34870 ft | 496 kts | 88° |
| 2026-04-24 14:56 | 23.16608 | 74.79331 | 34885 ft | 496 kts | 88° |
| 2026-04-24 14:56 | 23.16746 | 74.86824 | 34883 ft | 496 kts | 88° |
| 2026-04-24 14:57 | 23.16882 | 74.94424 | 34883 ft | 496 kts | 88° |
| 2026-04-24 14:57 | 23.17013 | 75.01908 | 34885 ft | 495 kts | 88° |
| 2026-04-24 14:58 | 23.17141 | 75.09448 | 34888 ft | 496 kts | 88° |
| 2026-04-24 14:58 | 23.17265 | 75.16942 | 34894 ft | 496 kts | 88° |
| 2026-04-24 14:59 | 23.17386 | 75.24455 | 34900 ft | 497 kts | 88° |
| 2026-04-24 14:59 | 23.17503 | 75.31971 | 34895 ft | 498 kts | 88° |
| 2026-04-24 15:00 | 23.17617 | 75.39497 | 34900 ft | 499 kts | 88° |
| 2026-04-24 15:00 | 23.17727 | 75.47034 | 34903 ft | 499 kts | 88° |
| 2026-04-24 15:01 | 23.17834 | 75.54583 | 34906 ft | 500 kts | 88° |
| 2026-04-24 15:01 | 23.17937 | 75.62135 | 34901 ft | 500 kts | 88° |
| 2026-04-24 15:02 | 23.18037 | 75.69691 | 34901 ft | 500 kts | 88° |
| 2026-04-24 15:02 | 23.18133 | 75.77242 | 34901 ft | 500 kts | 88° |
| 2026-04-24 15:03 | 23.18210 | 75.83521 | 34897 ft | 500 kts | 88° |
| 2026-04-24 15:03 | 23.18314 | 75.92303 | 34903 ft | 500 kts | 88° |
| 2026-04-24 15:04 | 23.18411 | 75.99915 | 34893 ft | 500 kts | 87° |
| 2026-04-24 15:04 | 23.18921 | 76.07454 | 34884 ft | 500 kts | 84° |
| 2026-04-24 15:05 | 23.19544 | 76.14979 | 34887 ft | 500 kts | 84° |
| 2026-04-24 15:05 | 23.20150 | 76.22487 | 34870 ft | 502 kts | 84° |
| 2026-04-24 15:06 | 23.20736 | 76.30063 | 34873 ft | 503 kts | 84° |
| 2026-04-24 15:06 | 23.21311 | 76.37655 | 34864 ft | 505 kts | 84° |
| 2026-04-24 15:07 | 23.21885 | 76.45264 | 34865 ft | 505 kts | 84° |
| 2026-04-24 15:07 | 23.22457 | 76.52880 | 34856 ft | 506 kts | 85° |
| 2026-04-24 15:08 | 23.23027 | 76.60510 | 34854 ft | 507 kts | 85° |
| 2026-04-24 15:08 | 23.23593 | 76.68148 | 34848 ft | 507 kts | 85° |
| 2026-04-24 15:09 | 23.24157 | 76.75804 | 34850 ft | 508 kts | 85° |
| 2026-04-24 15:09 | 23.24717 | 76.83461 | 34841 ft | 508 kts | 85° |
| 2026-04-24 15:10 | 23.25274 | 76.91120 | 34834 ft | 509 kts | 85° |
| 2026-04-24 15:10 | 23.25828 | 76.98796 | 34838 ft | 510 kts | 85° |
| 2026-04-24 15:11 | 23.26287 | 77.05191 | 34836 ft | 510 kts | 85° |
| 2026-04-24 15:11 | 23.26836 | 77.12891 | 34835 ft | 511 kts | 85° |
| 2026-04-24 15:12 | 23.27381 | 77.20601 | 34833 ft | 511 kts | 85° |
| 2026-04-24 15:12 | 23.28192 | 77.32179 | 34820 ft | 512 kts | 86° |
| 2026-04-24 15:13 | 23.28152 | 77.39923 | 34824 ft | 512 kts | 93° |
| 2026-04-24 15:13 | 23.27784 | 77.47662 | 34820 ft | 513 kts | 94° |
| 2026-04-24 15:14 | 23.27424 | 77.55406 | 34814 ft | 513 kts | 93° |
| 2026-04-24 15:14 | 23.27093 | 77.63166 | 34806 ft | 514 kts | 93° |
| 2026-04-24 15:15 | 23.26770 | 77.70928 | 34809 ft | 514 kts | 93° |
| 2026-04-24 15:15 | 23.26444 | 77.78703 | 34805 ft | 515 kts | 94° |
| 2026-04-24 15:16 | 23.26110 | 77.86498 | 34813 ft | 517 kts | 94° |
| 2026-04-24 15:16 | 23.25771 | 77.94311 | 34816 ft | 518 kts | 94° |
| 2026-04-24 15:17 | 23.25428 | 78.02149 | 34804 ft | 520 kts | 94° |
| 2026-04-24 15:17 | 23.25079 | 78.10008 | 34811 ft | 521 kts | 94° |
| 2026-04-24 15:18 | 23.24726 | 78.17872 | 34800 ft | 521 kts | 94° |
| 2026-04-24 15:18 | 23.24369 | 78.25742 | 34814 ft | 521 kts | 94° |
| 2026-04-24 15:19 | 23.24008 | 78.33610 | 34809 ft | 521 kts | 94° |
| 2026-04-24 15:19 | 23.23644 | 78.41475 | 34817 ft | 520 kts | 94° |
| 2026-04-24 15:20 | 23.23276 | 78.49327 | 34812 ft | 520 kts | 94° |
| 2026-04-24 15:20 | 23.22905 | 78.57175 | 34813 ft | 519 kts | 94° |
| 2026-04-24 15:21 | 23.22530 | 78.65008 | 34815 ft | 519 kts | 94° |
| 2026-04-24 15:21 | 23.22152 | 78.72844 | 34809 ft | 519 kts | 94° |
| 2026-04-24 15:22 | 23.21903 | 78.80693 | 34808 ft | 520 kts | 92° |
| 2026-04-24 15:23 | 23.21804 | 78.92506 | 34824 ft | 521 kts | 91° |
| 2026-04-24 15:23 | 23.21642 | 79.04332 | 34822 ft | 522 kts | 92° |
| 2026-04-24 15:25 | 23.21327 | 79.22747 | 34825 ft | 523 kts | 92° |
| 2026-04-24 15:26 | 23.20947 | 79.43871 | 34844 ft | 524 kts | 92° |
| 2026-04-24 15:27 | 23.20290 | 79.67651 | 34841 ft | 525 kts | 94° |
| 2026-04-24 15:29 | 23.19238 | 79.91455 | 34855 ft | 526 kts | 94° |
| 2026-04-24 15:31 | 23.17925 | 80.19529 | 34859 ft | 528 kts | 95° |
| 2026-04-24 15:33 | 23.16241 | 80.51522 | 34869 ft | 530 kts | 95° |
| 2026-04-24 15:34 | 23.15161 | 80.71537 | 34854 ft | 532 kts | 95° |
| 2026-04-24 15:35 | 23.14046 | 80.91917 | 34876 ft | 540 kts | 96° |
| 2026-04-24 15:36 | 23.13595 | 81.00078 | 34881 ft | 543 kts | 96° |
| 2026-04-24 15:36 | 23.12979 | 81.11107 | 34872 ft | 546 kts | 96° |
| 2026-04-24 15:37 | 23.12513 | 81.19345 | 34860 ft | 546 kts | 96° |
| 2026-04-24 15:37 | 23.12045 | 81.27571 | 34876 ft | 545 kts | 96° |
| 2026-04-24 15:38 | 23.11571 | 81.35809 | 34858 ft | 546 kts | 96° |
| 2026-04-24 15:38 | 23.11089 | 81.44100 | 34867 ft | 547 kts | 96° |
| 2026-04-24 15:39 | 23.10605 | 81.52355 | 34858 ft | 548 kts | 96° |
| 2026-04-24 15:39 | 23.10117 | 81.60616 | 34855 ft | 549 kts | 96° |
| 2026-04-24 15:40 | 23.09624 | 81.68889 | 34838 ft | 549 kts | 97° |
| 2026-04-24 15:40 | 23.09125 | 81.77180 | 34848 ft | 551 kts | 97° |
| 2026-04-24 15:41 | 23.08620 | 81.85487 | 34845 ft | 552 kts | 97° |
| 2026-04-24 15:41 | 23.08110 | 81.93813 | 34844 ft | 553 kts | 97° |
| 2026-04-24 15:42 | 23.07596 | 82.02148 | 34832 ft | 553 kts | 97° |
| 2026-04-24 15:42 | 23.07077 | 82.10488 | 34832 ft | 553 kts | 97° |
| 2026-04-24 15:43 | 23.06565 | 82.18821 | 34829 ft | 553 kts | 96° |
| 2026-04-24 15:43 | 23.06186 | 82.27159 | 34828 ft | 553 kts | 95° |
| 2026-04-24 15:44 | 23.05859 | 82.35493 | 34832 ft | 552 kts | 95° |
| 2026-04-24 15:44 | 23.05513 | 82.43824 | 34819 ft | 552 kts | 96° |
| 2026-04-24 15:45 | 23.05142 | 82.52159 | 34828 ft | 553 kts | 96° |
| 2026-04-24 15:45 | 23.04761 | 82.60507 | 34834 ft | 554 kts | 96° |
| 2026-04-24 15:46 | 23.04379 | 82.68816 | 34832 ft | 555 kts | 96° |
| 2026-04-24 15:46 | 23.03991 | 82.77184 | 34836 ft | 555 kts | 96° |
| 2026-04-24 15:47 | 23.03600 | 82.85569 | 34837 ft | 556 kts | 96° |
| 2026-04-24 15:47 | 23.03204 | 82.93958 | 34852 ft | 557 kts | 96° |
| 2026-04-24 15:48 | 23.02802 | 83.02360 | 34861 ft | 557 kts | 96° |
| 2026-04-24 15:48 | 23.02395 | 83.10766 | 34859 ft | 558 kts | 96° |
| 2026-04-24 15:49 | 23.01985 | 83.19168 | 34875 ft | 557 kts | 96° |
| 2026-04-24 15:49 | 23.01569 | 83.27569 | 34883 ft | 557 kts | 96° |
| 2026-04-24 15:50 | 23.01149 | 83.35978 | 34898 ft | 558 kts | 96° |
| 2026-04-24 15:50 | 23.00725 | 83.44385 | 34891 ft | 558 kts | 96° |
| 2026-04-24 15:51 | 23.00297 | 83.52781 | 34911 ft | 558 kts | 96° |
| 2026-04-24 15:51 | 22.99863 | 83.61182 | 34924 ft | 557 kts | 96° |
| 2026-04-24 15:52 | 22.99426 | 83.69584 | 34924 ft | 557 kts | 96° |
| 2026-04-24 15:52 | 22.98985 | 83.77971 | 34941 ft | 556 kts | 96° |
| 2026-04-24 15:53 | 22.98539 | 83.86355 | 34902 ft | 557 kts | 96° |
| 2026-04-24 15:53 | 22.98089 | 83.94739 | 34918 ft | 556 kts | 97° |
| 2026-04-24 15:54 | 22.97636 | 84.03113 | 34923 ft | 556 kts | 97° |
| 2026-04-24 15:54 | 22.97178 | 84.11477 | 34925 ft | 555 kts | 97° |
| 2026-04-24 15:55 | 22.96655 | 84.19825 | 34929 ft | 554 kts | 98° |
| 2026-04-24 15:55 | 22.96030 | 84.28207 | 34933 ft | 553 kts | 98° |
| 2026-04-24 15:56 | 22.95408 | 84.36522 | 34935 ft | 553 kts | 98° |
| 2026-04-24 15:56 | 22.94798 | 84.44836 | 34941 ft | 552 kts | 98° |
| 2026-04-24 15:57 | 22.94192 | 84.53141 | 34928 ft | 552 kts | 98° |
| 2026-04-24 15:57 | 22.93582 | 84.61451 | 34929 ft | 553 kts | 98° |
| 2026-04-24 15:58 | 22.92965 | 84.69760 | 34936 ft | 553 kts | 97° |
| 2026-04-24 15:58 | 22.92342 | 84.78081 | 34934 ft | 554 kts | 97° |
| 2026-04-24 15:59 | 22.91715 | 84.86415 | 34937 ft | 555 kts | 97° |
| 2026-04-24 15:59 | 22.91082 | 84.94760 | 34934 ft | 555 kts | 97° |
| 2026-04-24 16:00 | 22.90446 | 85.03106 | 34937 ft | 555 kts | 98° |
| 2026-04-24 16:00 | 22.89803 | 85.11460 | 34926 ft | 556 kts | 97° |
| 2026-04-24 16:01 | 22.89158 | 85.19812 | 34928 ft | 556 kts | 97° |
| 2026-04-24 16:01 | 22.88507 | 85.28174 | 34926 ft | 556 kts | 97° |
| 2026-04-24 16:02 | 22.87854 | 85.36533 | 34925 ft | 556 kts | 97° |
| 2026-04-24 16:02 | 22.87196 | 85.44886 | 34938 ft | 556 kts | 97° |
| 2026-04-24 16:03 | 22.86532 | 85.53252 | 34930 ft | 557 kts | 97° |
| 2026-04-24 16:03 | 22.85863 | 85.61630 | 34920 ft | 558 kts | 97° |
| 2026-04-24 16:04 | 22.85188 | 85.70027 | 34906 ft | 558 kts | 97° |
| 2026-04-24 16:04 | 22.84511 | 85.78415 | 34902 ft | 559 kts | 97° |
| 2026-04-24 16:05 | 22.83483 | 85.91017 | 34882 ft | 560 kts | 97° |
| 2026-04-24 16:06 | 22.82443 | 86.03648 | 34881 ft | 561 kts | 97° |
| 2026-04-24 16:07 | 22.81395 | 86.16269 | 34875 ft | 560 kts | 97° |
| 2026-04-24 16:07 | 22.80601 | 86.28962 | 34860 ft | 560 kts | 95° |
| 2026-04-24 16:08 | 22.80004 | 86.41536 | 34852 ft | 559 kts | 95° |
| 2026-04-24 16:09 | 22.79325 | 86.54206 | 34848 ft | 558 kts | 96° |
| 2026-04-24 16:09 | 22.78857 | 86.62601 | 34837 ft | 557 kts | 96° |
| 2026-04-24 16:11 | 22.77683 | 86.83455 | 34821 ft | 555 kts | 96° |
| 2026-04-24 16:11 | 22.77204 | 86.91854 | 34818 ft | 555 kts | 96° |
| 2026-04-24 16:12 | 22.76562 | 87.02961 | 34811 ft | 555 kts | 95° |
| 2026-04-24 16:13 | 22.75831 | 87.15484 | 34800 ft | 556 kts | 95° |
| 2026-04-24 16:14 | 22.74839 | 87.32198 | 34799 ft | 556 kts | 96° |
| 2026-04-24 16:14 | 22.74081 | 87.44769 | 34798 ft | 555 kts | 96° |
| 2026-04-24 16:15 | 22.73318 | 87.57268 | 34803 ft | 554 kts | 96° |
| 2026-04-24 16:16 | 22.72546 | 87.69739 | 34805 ft | 553 kts | 96° |
| 2026-04-24 16:17 | 22.71241 | 87.90504 | 34803 ft | 553 kts | 96° |
| 2026-04-24 16:18 | 22.70177 | 88.07108 | 34805 ft | 553 kts | 96° |
| 2026-04-24 16:19 | 22.69363 | 88.19640 | 34805 ft | 553 kts | 96° |
| 2026-04-24 16:20 | 22.68538 | 88.32190 | 34800 ft | 553 kts | 96° |
| 2026-04-24 16:20 | 22.67682 | 88.44706 | 34803 ft | 553 kts | 98° |
| 2026-04-24 16:21 | 22.65726 | 88.56951 | 34801 ft | 550 kts | 103° |
| 2026-04-24 16:22 | 22.64301 | 88.65091 | 34809 ft | 550 kts | 103° |
| 2026-04-24 16:22 | 22.62240 | 88.77304 | 34813 ft | 550 kts | 103° |
| 2026-04-24 16:23 | 22.60869 | 88.85443 | 34813 ft | 550 kts | 103° |
| 2026-04-24 16:24 | 22.58939 | 88.97678 | 34825 ft | 551 kts | 99° |
| 2026-04-24 16:24 | 22.58040 | 89.05909 | 34821 ft | 551 kts | 98° |
| 2026-04-24 16:25 | 22.57181 | 89.14153 | 34818 ft | 551 kts | 98° |
| 2026-04-24 16:25 | 22.56292 | 89.22396 | 34823 ft | 551 kts | 98° |
| 2026-04-24 16:26 | 22.54916 | 89.34747 | 34828 ft | 552 kts | 99° |
| 2026-04-24 16:27 | 22.53528 | 89.47106 | 34828 ft | 552 kts | 99° |
| 2026-04-24 16:27 | 22.52598 | 89.55353 | 34822 ft | 552 kts | 99° |
| 2026-04-24 16:28 | 22.51664 | 89.63607 | 34824 ft | 553 kts | 99° |
| 2026-04-24 16:28 | 22.50255 | 89.75986 | 34826 ft | 553 kts | 99° |
| 2026-04-24 16:29 | 22.49311 | 89.84231 | 34842 ft | 553 kts | 99° |
| 2026-04-24 16:30 | 22.47410 | 90.00717 | 34834 ft | 553 kts | 99° |
| 2026-04-24 16:30 | 22.46453 | 90.08962 | 34825 ft | 553 kts | 99° |
| 2026-04-24 16:31 | 22.45491 | 90.17208 | 34811 ft | 552 kts | 99° |
| 2026-04-24 16:31 | 22.44527 | 90.25439 | 34824 ft | 552 kts | 99° |
| 2026-04-24 16:32 | 22.43559 | 90.33665 | 34829 ft | 551 kts | 99° |
| 2026-04-24 16:32 | 22.42589 | 90.41880 | 34831 ft | 551 kts | 99° |
| 2026-04-24 16:33 | 22.41615 | 90.50085 | 34833 ft | 549 kts | 99° |
| 2026-04-24 16:33 | 22.40640 | 90.58264 | 34830 ft | 548 kts | 99° |
| 2026-04-24 16:34 | 22.39662 | 90.66433 | 34837 ft | 548 kts | 99° |
| 2026-04-24 16:34 | 22.38680 | 90.74594 | 34839 ft | 547 kts | 99° |
| 2026-04-24 16:35 | 22.37696 | 90.82742 | 34840 ft | 546 kts | 99° |
| 2026-04-24 16:35 | 22.36709 | 90.90879 | 34839 ft | 546 kts | 99° |
| 2026-04-24 16:36 | 22.35720 | 90.98999 | 34845 ft | 545 kts | 99° |
| 2026-04-24 16:36 | 22.34727 | 91.07121 | 34840 ft | 545 kts | 99° |
| 2026-04-24 16:37 | 22.33730 | 91.15234 | 34847 ft | 545 kts | 99° |
| 2026-04-24 16:37 | 22.32727 | 91.23364 | 34834 ft | 547 kts | 99° |
| 2026-04-24 16:38 | 22.31717 | 91.31520 | 34844 ft | 549 kts | 99° |
| 2026-04-24 16:38 | 22.30704 | 91.39699 | 34831 ft | 550 kts | 99° |
| 2026-04-24 16:39 | 22.29765 | 91.47900 | 34839 ft | 551 kts | 98° |
| 2026-04-24 16:39 | 22.28852 | 91.56124 | 34845 ft | 552 kts | 98° |
| 2026-04-24 16:40 | 22.27922 | 91.64346 | 34849 ft | 551 kts | 98° |
| 2026-04-24 16:40 | 22.26980 | 91.72554 | 34861 ft | 551 kts | 98° |
| 2026-04-24 16:41 | 22.26030 | 91.80802 | 34860 ft | 550 kts | 98° |
| 2026-04-24 16:41 | 22.25229 | 91.89000 | 34830 ft | 549 kts | 95° |
| 2026-04-24 16:42 | 22.24803 | 91.95836 | 34826 ft | 549 kts | 94° |
| 2026-04-24 16:42 | 22.24289 | 92.04059 | 34838 ft | 549 kts | 94° |
| 2026-04-24 16:43 | 22.23707 | 92.12276 | 34832 ft | 549 kts | 95° |
| 2026-04-24 16:43 | 22.23103 | 92.20495 | 34838 ft | 549 kts | 95° |
| 2026-04-24 16:44 | 22.22506 | 92.28714 | 34839 ft | 549 kts | 95° |
| 2026-04-24 16:44 | 22.21994 | 92.36945 | 34846 ft | 550 kts | 94° |
| 2026-04-24 16:45 | 22.21515 | 92.45185 | 34857 ft | 550 kts | 94° |
| 2026-04-24 16:45 | 22.21014 | 92.53424 | 34857 ft | 550 kts | 94° |
| 2026-04-24 16:46 | 22.20501 | 92.61672 | 34873 ft | 551 kts | 94° |
| 2026-04-24 16:46 | 22.19976 | 92.69922 | 34862 ft | 551 kts | 94° |
| 2026-04-24 16:47 | 22.19419 | 92.78175 | 34884 ft | 553 kts | 94° |
| 2026-04-24 16:47 | 22.18852 | 92.86465 | 34875 ft | 554 kts | 94° |
| 2026-04-24 16:48 | 22.18284 | 92.94739 | 34908 ft | 552 kts | 94° |
| 2026-04-24 16:48 | 22.17718 | 93.02987 | 34875 ft | 549 kts | 94° |
| 2026-04-24 16:49 | 22.17143 | 93.11299 | 34938 ft | 548 kts | 94° |
| 2026-04-24 16:49 | 22.16577 | 93.19487 | 34940 ft | 545 kts | 94° |
| 2026-04-24 16:50 | 22.16000 | 93.27668 | 34974 ft | 549 kts | 94° |
| 2026-04-24 16:50 | 22.15417 | 93.35908 | 34962 ft | 553 kts | 94° |
| 2026-04-24 16:51 | 22.14828 | 93.44183 | 34943 ft | 553 kts | 94° |
| 2026-04-24 16:51 | 22.14230 | 93.52496 | 34940 ft | 552 kts | 95° |
| 2026-04-24 16:52 | 22.13639 | 93.60731 | 34940 ft | 554 kts | 94° |
| 2026-04-24 16:52 | 22.13032 | 93.69074 | 34925 ft | 554 kts | 95° |
| 2026-04-24 16:53 | 22.12424 | 93.77329 | 34941 ft | 551 kts | 95° |
| 2026-04-24 16:53 | 22.11820 | 93.85566 | 34900 ft | 551 kts | 95° |
| 2026-04-24 16:54 | 22.11210 | 93.93800 | 34901 ft | 550 kts | 95° |
| 2026-04-24 16:54 | 22.10594 | 94.02030 | 34856 ft | 551 kts | 95° |
| 2026-04-24 16:55 | 22.09973 | 94.10277 | 34854 ft | 551 kts | 95° |
| 2026-04-24 16:55 | 22.09349 | 94.18504 | 34841 ft | 551 kts | 95° |
| 2026-04-24 16:56 | 22.08722 | 94.26730 | 34845 ft | 551 kts | 95° |
| 2026-04-24 16:56 | 22.08089 | 94.34971 | 34843 ft | 551 kts | 95° |
| 2026-04-24 16:57 | 22.07452 | 94.43213 | 34831 ft | 552 kts | 95° |
| 2026-04-24 16:57 | 22.06811 | 94.51460 | 34835 ft | 551 kts | 95° |
| 2026-04-24 16:58 | 22.06166 | 94.59699 | 34811 ft | 552 kts | 95° |
| 2026-04-24 16:58 | 22.05515 | 94.67950 | 34817 ft | 552 kts | 95° |
| 2026-04-24 16:59 | 22.04862 | 94.76189 | 34798 ft | 552 kts | 95° |
| 2026-04-24 17:00 | 22.03872 | 94.88561 | 34799 ft | 552 kts | 95° |
| 2026-04-24 17:00 | 22.02873 | 95.00940 | 34793 ft | 553 kts | 95° |
| 2026-04-24 17:01 | 22.01867 | 95.13286 | 34785 ft | 554 kts | 95° |
| 2026-04-24 17:02 | 22.00846 | 95.25704 | 34788 ft | 555 kts | 95° |
| 2026-04-24 17:02 | 22.00160 | 95.33988 | 34788 ft | 555 kts | 95° |
| 2026-04-24 17:03 | 21.99117 | 95.46468 | 34789 ft | 555 kts | 95° |
| 2026-04-24 17:04 | 21.98421 | 95.54742 | 34777 ft | 554 kts | 95° |
| 2026-04-24 17:04 | 21.97370 | 95.67135 | 34790 ft | 554 kts | 95° |
| 2026-04-24 17:05 | 21.96664 | 95.75398 | 34780 ft | 554 kts | 95° |
| 2026-04-24 17:06 | 21.95592 | 95.87855 | 34793 ft | 554 kts | 95° |
| 2026-04-24 17:06 | 21.94503 | 96.00406 | 34792 ft | 553 kts | 95° |
| 2026-04-24 17:07 | 21.93782 | 96.08660 | 34803 ft | 553 kts | 95° |
| 2026-04-24 17:08 | 21.90615 | 96.24829 | 34846 ft | 552 kts | 107° |
| 2026-04-24 17:08 | 21.88592 | 96.32813 | 34837 ft | 554 kts | 106° |
| 2026-04-24 17:09 | 21.84973 | 96.47486 | 34871 ft | 554 kts | 105° |
| 2026-04-24 17:10 | 21.81031 | 96.63586 | 34878 ft | 554 kts | 105° |
| 2026-04-24 17:12 | 21.73138 | 96.95500 | 34876 ft | 551 kts | 105° |
| 2026-04-24 18:54 | 21.13948 | 103.30216 | 37018 ft | 547 kts | 80° |
| 2026-04-24 20:30 | 21.14041 | 103.31094 | 37037 ft | 547 kts | 81° |
| 2026-04-24 20:30 | 21.14467 | 103.35173 | 36920 ft | 545 kts | 81° |
| 2026-04-24 20:30 | 21.14888 | 103.39201 | 36665 ft | 544 kts | 81° |
| 2026-04-24 20:31 | 21.15314 | 103.43285 | 36324 ft | 544 kts | 81° |
| 2026-04-24 20:31 | 21.15733 | 103.47318 | 35944 ft | 545 kts | 81° |
| 2026-04-24 20:31 | 21.16117 | 103.51037 | 35667 ft | 545 kts | 81° |
| 2026-04-24 20:32 | 21.16322 | 103.53021 | 35471 ft | 546 kts | 81° |
| 2026-04-24 20:32 | 21.16350 | 103.53290 | 35447 ft | 546 kts | 80° |
| 2026-04-24 20:32 | 21.16770 | 103.57335 | 35034 ft | 548 kts | 81° |
| 2026-04-24 20:32 | 21.17189 | 103.61393 | 34693 ft | 548 kts | 81° |
| 2026-04-24 20:33 | 21.17603 | 103.65425 | 34424 ft | 546 kts | 81° |
| 2026-04-24 20:33 | 21.17798 | 103.67328 | 34266 ft | 546 kts | 81° |
| 2026-04-24 20:33 | 21.18211 | 103.71370 | 33888 ft | 546 kts | 80° |
| 2026-04-24 20:33 | 21.18625 | 103.75420 | 33421 ft | 547 kts | 81° |
| 2026-04-24 20:34 | 21.19039 | 103.79464 | 32986 ft | 547 kts | 81° |
| 2026-04-24 20:34 | 21.19453 | 103.83523 | 32600 ft | 546 kts | 81° |
| 2026-04-24 20:34 | 21.19874 | 103.87680 | 32157 ft | 546 kts | 81° |
| 2026-04-24 20:34 | 21.20281 | 103.91714 | 31699 ft | 543 kts | 81° |
| 2026-04-24 20:35 | 21.20686 | 103.95718 | 31174 ft | 538 kts | 81° |
| 2026-04-24 20:35 | 21.21075 | 103.99580 | 30671 ft | 533 kts | 81° |
| 2026-04-24 20:35 | 21.21451 | 104.03521 | 30161 ft | 529 kts | 83° |
| 2026-04-24 20:35 | 21.21585 | 104.07445 | 29583 ft | 526 kts | 88° |
| 2026-04-24 20:36 | 21.21565 | 104.11343 | 29012 ft | 521 kts | 89° |
| 2026-04-24 20:36 | 21.21520 | 104.15208 | 28456 ft | 516 kts | 89° |
| 2026-04-24 20:36 | 21.21473 | 104.19030 | 27920 ft | 511 kts | 89° |
| 2026-04-24 20:36 | 21.21434 | 104.22815 | 27377 ft | 505 kts | 89° |
| 2026-04-24 20:37 | 21.21405 | 104.26560 | 26856 ft | 500 kts | 89° |
| 2026-04-24 20:37 | 21.21382 | 104.30273 | 26325 ft | 495 kts | 89° |
| 2026-04-24 20:37 | 21.21364 | 104.33944 | 25805 ft | 491 kts | 89° |
| 2026-04-24 20:37 | 21.21347 | 104.37587 | 25279 ft | 487 kts | 89° |
| 2026-04-24 20:38 | 21.21329 | 104.41289 | 24723 ft | 483 kts | 89° |
| 2026-04-24 20:38 | 21.21310 | 104.44808 | 24193 ft | 479 kts | 90° |
| 2026-04-24 20:38 | 21.21289 | 104.48371 | 23663 ft | 475 kts | 90° |
| 2026-04-24 20:38 | 21.21269 | 104.51894 | 23043 ft | 471 kts | 90° |
| 2026-04-24 20:39 | 21.21245 | 104.55769 | 22424 ft | 466 kts | 90° |
| 2026-04-24 20:39 | 21.21230 | 104.58057 | 22061 ft | 463 kts | 90° |
| 2026-04-24 20:39 | 21.21207 | 104.61482 | 21531 ft | 457 kts | 89° |
| 2026-04-24 20:39 | 21.21183 | 104.64874 | 21003 ft | 453 kts | 89° |
| 2026-04-24 20:40 | 21.21159 | 104.68229 | 20485 ft | 449 kts | 89° |
| 2026-04-24 20:40 | 21.21135 | 104.71565 | 19968 ft | 445 kts | 89° |
| 2026-04-24 20:40 | 21.21110 | 104.74870 | 19432 ft | 443 kts | 89° |
| 2026-04-24 20:40 | 21.21085 | 104.78158 | 18911 ft | 440 kts | 89° |
| 2026-04-24 20:41 | 21.21060 | 104.81431 | 18382 ft | 438 kts | 89° |
| 2026-04-24 20:41 | 21.21035 | 104.84684 | 17788 ft | 435 kts | 89° |
| 2026-04-24 20:41 | 21.21009 | 104.87916 | 17245 ft | 432 kts | 89° |
| 2026-04-24 20:41 | 21.20981 | 104.91162 | 16716 ft | 428 kts | 89° |
| 2026-04-24 20:42 | 21.20953 | 104.94297 | 16202 ft | 425 kts | 89° |
| 2026-04-24 20:42 | 21.20926 | 104.97448 | 15700 ft | 421 kts | 89° |
| 2026-04-24 20:42 | 21.20898 | 105.00597 | 15200 ft | 418 kts | 89° |
| 2026-04-24 20:42 | 21.20870 | 105.03713 | 14693 ft | 415 kts | 90° |
| 2026-04-24 20:43 | 21.20814 | 105.06781 | 14180 ft | 406 kts | 94° |
| 2026-04-24 20:43 | 21.20127 | 105.09684 | 13663 ft | 404 kts | 115° |
| 2026-04-24 20:43 | 21.18576 | 105.12165 | 13157 ft | 401 kts | 132° |
| 2026-04-24 20:43 | 21.16486 | 105.14100 | 12635 ft | 395 kts | 147° |
| 2026-04-24 20:44 | 21.14149 | 105.15621 | 12168 ft | 392 kts | 150° |
| 2026-04-24 20:44 | 21.11807 | 105.17101 | 11749 ft | 388 kts | 150° |
| 2026-04-24 20:44 | 21.09527 | 105.18556 | 11593 ft | 377 kts | 149° |
| 2026-04-24 20:44 | 21.07312 | 105.19992 | 11420 ft | 367 kts | 149° |
| 2026-04-24 20:45 | 21.05165 | 105.21400 | 11269 ft | 357 kts | 149° |
| 2026-04-24 20:45 | 21.03075 | 105.22776 | 11115 ft | 348 kts | 149° |
| 2026-04-24 20:45 | 21.01019 | 105.24069 | 10964 ft | 334 kts | 156° |
| 2026-04-24 20:45 | 20.98886 | 105.24897 | 10944 ft | 319 kts | 165° |
| 2026-04-24 20:46 | 20.96745 | 105.25503 | 10821 ft | 309 kts | 167° |
| 2026-04-24 20:46 | 20.94683 | 105.26063 | 10707 ft | 303 kts | 166° |
| 2026-04-24 20:46 | 20.92649 | 105.26634 | 10612 ft | 302 kts | 166° |
| 2026-04-24 20:46 | 20.90601 | 105.27237 | 10535 ft | 302 kts | 165° |
| 2026-04-24 20:47 | 20.88575 | 105.27850 | 10455 ft | 303 kts | 165° |
| 2026-04-24 20:47 | 20.86548 | 105.28469 | 10360 ft | 303 kts | 165° |
| 2026-04-24 20:47 | 20.84521 | 105.29091 | 10277 ft | 301 kts | 163° |
| 2026-04-24 20:47 | 20.82689 | 105.30098 | 10159 ft | 296 kts | 138° |
| 2026-04-24 20:48 | 20.81265 | 105.31651 | 10103 ft | 291 kts | 134° |
| 2026-04-24 20:48 | 20.79867 | 105.33199 | 10013 ft | 289 kts | 134° |
| 2026-04-24 20:48 | 20.78372 | 105.34834 | 9915 ft | 287 kts | 135° |
| 2026-04-24 20:48 | 20.76975 | 105.36355 | 9826 ft | 285 kts | 135° |
| 2026-04-24 20:49 | 20.75580 | 105.37870 | 9733 ft | 285 kts | 135° |
| 2026-04-24 20:49 | 20.74177 | 105.39390 | 9639 ft | 284 kts | 135° |
| 2026-04-24 20:49 | 20.72792 | 105.40888 | 9579 ft | 284 kts | 135° |
| 2026-04-24 20:49 | 20.71511 | 105.42273 | 9495 ft | 285 kts | 135° |
| 2026-04-24 20:50 | 20.70048 | 105.43973 | 9357 ft | 282 kts | 123° |
| 2026-04-24 20:50 | 20.69349 | 105.45898 | 9330 ft | 281 kts | 103° |
| 2026-04-24 20:50 | 20.68885 | 105.47966 | 9269 ft | 290 kts | 104° |
| 2026-04-24 20:50 | 20.68386 | 105.50061 | 9183 ft | 291 kts | 104° |
| 2026-04-24 20:51 | 20.67883 | 105.52142 | 9078 ft | 288 kts | 104° |
| 2026-04-24 20:51 | 20.67384 | 105.54201 | 8986 ft | 285 kts | 104° |
| 2026-04-24 20:51 | 20.66889 | 105.56235 | 8904 ft | 282 kts | 104° |
| 2026-04-24 20:51 | 20.66398 | 105.58251 | 8826 ft | 278 kts | 104° |
| 2026-04-24 20:52 | 20.66251 | 105.60280 | 8725 ft | 278 kts | 78° |
| 2026-04-24 20:52 | 20.67032 | 105.62162 | 8664 ft | 281 kts | 50° |
| 2026-04-24 20:52 | 20.68569 | 105.63469 | 8586 ft | 281 kts | 23° |
| 2026-04-24 20:52 | 20.70417 | 105.63936 | 8498 ft | 274 kts | 0° |
| 2026-04-24 20:53 | 20.72341 | 105.63919 | 8434 ft | 273 kts | 358° |
| 2026-04-24 20:53 | 20.74217 | 105.63888 | 8334 ft | 274 kts | 358° |
| 2026-04-24 20:53 | 20.76126 | 105.63857 | 8279 ft | 275 kts | 359° |
| 2026-04-24 20:53 | 20.78043 | 105.63833 | 8195 ft | 276 kts | 359° |
| 2026-04-24 20:54 | 20.79972 | 105.63813 | 8123 ft | 277 kts | 359° |
| 2026-04-24 20:54 | 20.81930 | 105.63797 | 8026 ft | 278 kts | 359° |
| 2026-04-24 20:54 | 20.83865 | 105.63782 | 7944 ft | 278 kts | 359° |
| 2026-04-24 20:54 | 20.85799 | 105.63766 | 7863 ft | 278 kts | 359° |
| 2026-04-24 20:55 | 20.87731 | 105.63751 | 7779 ft | 277 kts | 359° |
| 2026-04-24 20:55 | 20.89659 | 105.63736 | 7699 ft | 277 kts | 359° |
| 2026-04-24 20:55 | 20.91580 | 105.63721 | 7611 ft | 276 kts | 359° |
| 2026-04-24 20:55 | 20.93495 | 105.63707 | 7536 ft | 275 kts | 359° |
| 2026-04-24 20:56 | 20.95400 | 105.63692 | 7457 ft | 274 kts | 359° |
| 2026-04-24 20:56 | 20.97302 | 105.63677 | 7374 ft | 273 kts | 359° |
| 2026-04-24 20:56 | 20.99195 | 105.63663 | 7296 ft | 271 kts | 359° |
| 2026-04-24 20:56 | 21.00507 | 105.63652 | 7243 ft | 265 kts | 359° |
| 2026-04-24 20:57 | 21.02316 | 105.63618 | 7140 ft | 253 kts | 354° |
| 2026-04-24 20:57 | 21.04587 | 105.63041 | 7067 ft | 252 kts | 342° |
| 2026-04-24 20:57 | 21.05695 | 105.62662 | 7017 ft | 252 kts | 342° |
| 2026-04-24 20:57 | 21.07358 | 105.62091 | 6946 ft | 250 kts | 342° |
| 2026-04-24 20:58 | 21.09011 | 105.61540 | 6870 ft | 248 kts | 343° |
| 2026-04-24 20:58 | 21.10652 | 105.61006 | 6798 ft | 246 kts | 343° |
| 2026-04-24 20:58 | 21.12281 | 105.60486 | 6718 ft | 244 kts | 343° |
| 2026-04-24 20:58 | 21.13902 | 105.59970 | 6648 ft | 242 kts | 343° |
| 2026-04-24 20:59 | 21.15485 | 105.59469 | 6599 ft | 232 kts | 343° |
| 2026-04-24 20:59 | 21.16970 | 105.58905 | 6531 ft | 225 kts | 328° |
| 2026-04-24 20:59 | 21.17988 | 105.57683 | 6462 ft | 222 kts | 294° |
| 2026-04-24 20:59 | 21.18490 | 105.56111 | 6416 ft | 225 kts | 287° |
| 2026-04-24 21:00 | 21.18952 | 105.54496 | 6331 ft | 229 kts | 287° |
| 2026-04-24 21:00 | 21.19418 | 105.52863 | 6266 ft | 228 kts | 287° |
| 2026-04-24 21:00 | 21.19884 | 105.51230 | 6161 ft | 224 kts | 287° |
| 2026-04-24 21:00 | 21.20336 | 105.49640 | 5936 ft | 224 kts | 287° |
| 2026-04-24 21:01 | 21.20922 | 105.47586 | 5617 ft | 224 kts | 288° |
| 2026-04-24 21:01 | 21.21655 | 105.46135 | 5263 ft | 224 kts | 317° |
| 2026-04-24 21:01 | 21.23002 | 105.45353 | 4961 ft | 222 kts | 352° |
| 2026-04-24 21:01 | 21.24496 | 105.45515 | 4714 ft | 216 kts | 27° |
| 2026-04-24 21:02 | 21.25298 | 105.46106 | 4527 ft | 211 kts | 48° |
| 2026-04-24 21:02 | 21.26204 | 105.47366 | 4277 ft | 210 kts | 57° |
| 2026-04-24 21:02 | 21.27015 | 105.48669 | 4077 ft | 210 kts | 58° |
| 2026-04-24 21:02 | 21.27815 | 105.49971 | 3879 ft | 209 kts | 58° |
| 2026-04-24 21:03 | 21.28406 | 105.51362 | 3584 ft | 206 kts | 85° |
| 2026-04-24 21:03 | 21.28053 | 105.52839 | 3271 ft | 205 kts | 120° |
| 2026-04-24 21:03 | 21.27521 | 105.54217 | 2978 ft | 201 kts | 93° |
| 2026-04-24 21:03 | 21.27535 | 105.55706 | 2689 ft | 201 kts | 90° |
| 2026-04-24 21:04 | 21.27492 | 105.57203 | 2455 ft | 199 kts | 92° |
| 2026-04-24 21:04 | 21.27433 | 105.58676 | 2111 ft | 197 kts | 92° |
| 2026-04-24 21:04 | 21.27370 | 105.60157 | 2012 ft | 198 kts | 92° |
| 2026-04-24 21:04 | 21.27268 | 105.61584 | 2021 ft | 187 kts | 99° |
| 2026-04-24 21:05 | 21.26981 | 105.62897 | 2002 ft | 175 kts | 105° |
| 2026-04-24 21:05 | 21.26649 | 105.64098 | 1997 ft | 162 kts | 107° |
| 2026-04-24 21:05 | 21.26329 | 105.65218 | 1976 ft | 153 kts | 106° |
| 2026-04-24 21:05 | 21.26017 | 105.66307 | 1993 ft | 155 kts | 106° |
| 2026-04-24 21:06 | 21.25698 | 105.67413 | 1996 ft | 156 kts | 106° |
| 2026-04-24 21:06 | 21.25377 | 105.68531 | 1956 ft | 159 kts | 106° |
| 2026-04-24 21:06 | 21.25050 | 105.69669 | 1714 ft | 159 kts | 106° |
| 2026-04-24 21:06 | 21.24728 | 105.70787 | 1487 ft | 155 kts | 107° |
| 2026-04-24 21:07 | 21.24405 | 105.71901 | 1300 ft | 158 kts | 107° |
| 2026-04-24 21:07 | 21.24081 | 105.73020 | 1133 ft | 156 kts | 107° |
| 2026-04-24 21:07 | 21.23774 | 105.74121 | 913 ft | 153 kts | 107° |
| 2026-04-24 21:07 | 21.23463 | 105.75206 | 720 ft | 153 kts | 108° |
| 2026-04-24 21:08 | 21.23139 | 105.76290 | 529 ft | 152 kts | 108° |
| 2026-04-24 21:08 | 21.22832 | 105.77371 | 325 ft | 150 kts | 107° |
| 2026-04-24 21:08 | 21.22532 | 105.78429 | 132 ft | 146 kts | 107° |
| 2026-04-24 21:08 | 21.22244 | 105.79435 | 50 ft | 131 kts | 108° |
| 2026-04-24 21:09 | 21.22017 | 105.80215 | 51 ft | 88 kts | 107° |
| 2026-04-24 21:09 | 21.21881 | 105.80682 | 51 ft | 39 kts | 107° |
| 2026-04-24 21:09 | 21.21755 | 105.80901 | 51 ft | 20 kts | 133° |
| 2026-04-24 21:09 | 21.21667 | 105.81001 | 48 ft | 18 kts | 133° |
| 2026-04-24 21:10 | 21.21601 | 105.81067 | 51 ft | 11 kts | 160° |
| 2026-04-24 21:10 | 21.21530 | 105.81058 | 51 ft | 11 kts | 228° |
| 2026-04-24 21:10 | 21.21528 | 105.80976 | 51 ft | 12 kts | 289° |
| 2026-04-24 21:10 | 21.21559 | 105.80885 | 50 ft | 13 kts | 291° |
| 2026-04-24 21:11 | 21.21589 | 105.80787 | 51 ft | 14 kts | 287° |
| 2026-04-24 21:11 | 21.21619 | 105.80683 | 53 ft | 15 kts | 287° |
| 2026-04-24 21:11 | 21.21651 | 105.80571 | 51 ft | 16 kts | 287° |
| 2026-04-24 21:11 | 21.21684 | 105.80458 | 55 ft | 17 kts | 287° |
| 2026-04-24 21:12 | 21.21729 | 105.80302 | 51 ft | 15 kts | 286° |
| 2026-04-24 21:12 | 21.21749 | 105.80225 | 50 ft | 19 kts | 287° |
| 2026-04-24 21:12 | 21.21818 | 105.79992 | 54 ft | 25 kts | 288° |
| 2026-04-24 21:12 | 21.21864 | 105.79811 | 49 ft | 25 kts | 284° |
| 2026-04-24 21:13 | 21.21906 | 105.79647 | 52 ft | 20 kts | 288° |
| 2026-04-24 21:13 | 21.21924 | 105.79590 | 48 ft | 2 kts | 288° |
| 2026-04-24 21:13 | 21.21901 | 105.79565 | 47 ft | 14 kts | 209° |
| 2026-04-24 21:13 | 21.21857 | 105.79544 | 53 ft | 5 kts | 208° |
| 2026-04-24 21:14 | 21.21846 | 105.79537 | 48 ft | 0 kts | 208° |